Wednesday, November 14, 2018, 1:20 AM GMT
Back to Local

CYSC, Sherbrooke, Que.

Location: , , Canada Lat: 45.4
Local Time: 1:20 AM GMT ( 1:20 GMT) Lon: -71.883
Time Zone: GMT Elev: 557 ft

Show me the last for .
Show Decoded

2018-11-14 01:07 METAR CYSC 140107Z AUTO 28017G33KT 6SM -SN SCT011 BKN016 BKN023 OVC030 M01/M03
                 A2982 RMK PRESRR SLP112 =
2018-11-14 01:00 METAR CYSC 140100Z AUTO 29025G37KT 3SM -SN FEW008 BKN014 OVC023 M01/M04 A2982
                 RMK PRESRR SLP110 =
2018-11-14 00:53 METAR CYSC 140053Z AUTO 27023G34KT 3SM -SN SCT008 OVC012 M00/M02 A2980 RMK
                 PRESRR SLP104 =
2018-11-14 00:50 METAR CYSC 140050Z AUTO 27022G29KT 4SM -SN BKN008 OVC014 M00/M01 A2980 RMK
                 PRESRR SLP103 =
2018-11-14 00:42 METAR CYSC 140042Z AUTO 28020G27KT 3SM -SN SCT008 BKN012 OVC017 00/M01 A2979 RMK
                 SLP101 =
2018-11-14 00:41 METAR CYSC 140041Z AUTO 28022G27KT 3SM -SN BKN008 BKN012 OVC017 00/M01 A2979 RMK
                 SLP101 =
2018-11-14 00:37 METAR CYSC 140037Z AUTO 28020G28KT 2SM -SN BKN008 OVC012 00/M01 A2979 RMK SLP100
                 =
2018-11-14 00:31 METAR CYSC 140031Z AUTO 27019G28KT 1 3/4SM -SN BKN008 OVC012 00/M00 A2979 RMK
                 PRESRR SLP101 =
2018-11-14 00:15 METAR CYSC 140015Z AUTO 27011G18KT 2 1/2SM -SN BKN008 OVC014 00/M00 A2978 RMK
                 SLP097 =
2018-11-14 00:01 METAR CYSC 140001Z AUTO 25009KT 4SM -SN FEW004 BKN008 OVC013 00/00 A2978 RMK
                 SLP097 =
2018-11-14 00:00 METAR CYSC 140000Z AUTO 25008KT 3SM -SN FEW004 OVC010 00/00 A2978 RMK SLP097 =
2018-11-13 23:53 METAR CYSC 132353Z AUTO 26009KT 3SM -SN SCT004 OVC010 00/00 A2979 RMK SLP099 =
2018-11-13 23:48 METAR CYSC 132348Z AUTO 26009KT 2 1/2SM -SN SCT004 OVC010 00/00 A2979 RMK SLP099
                 =
2018-11-13 23:36 METAR CYSC 132336Z AUTO 26005KT 2SM -SN BKN004 OVC012 00/00 A2979 RMK SLP100 =
2018-11-13 23:25 METAR CYSC 132325Z AUTO 24003KT 1 3/4SM -SN OVC004 00/00 A2979 RMK SLP101 =
2018-11-13 23:18 METAR CYSC 132318Z AUTO 24003KT 2 1/4SM -SN OVC004 00/00 A2980 RMK SLP102 =
2018-11-13 23:07 METAR CYSC 132307Z AUTO 23003KT 210V270 3SM -SN OVC004 00/00 A2980 RMK SLP103 =
2018-11-13 23:00 METAR CYSC 132300Z AUTO 26004KT 2 1/4SM -SN OVC004 00/00 A2981 RMK SLP105 =
2018-11-13 22:56 METAR CYSC 132256Z AUTO 26005KT 2 1/2SM -SN BKN004 OVC008 00/00 A2981 RMK SLP105
                 =
2018-11-13 22:38 METAR CYSC 132238Z AUTO 25005KT 5SM -SN BKN004 OVC008 00/00 A2981 RMK SLP106 =
2018-11-13 22:36 METAR CYSC 132236Z AUTO 26007KT 4SM -SN SCT002 OVC008 00/00 A2981 RMK SLP105 =
2018-11-13 22:33 METAR CYSC 132233Z AUTO 26007KT 4SM -SN -UP SCT002 OVC010 00/00 A2981 RMK SLP105
                 =
2018-11-13 22:32 METAR CYSC 132232Z AUTO 26007KT 3SM -SN -UP BKN002 OVC010 00/00 A2981 RMK SLP106
                 =
2018-11-13 22:31 METAR CYSC 132231Z AUTO 26007KT 3SM -UP BR BKN002 OVC010 00/00 A2981 RMK SLP106
                 =
2018-11-13 22:24 METAR CYSC 132224Z AUTO 27007KT 2SM -UP BR BKN002 OVC010 00/00 A2981 RMK SLP105
                 =
2018-11-13 22:23 METAR CYSC 132223Z AUTO 27008KT 1 3/4SM -UP BR BKN002 OVC010 00/00 A2981 RMK
                 SLP106 =
2018-11-13 22:00 METAR CYSC 132200Z AUTO 26006KT 1SM BR OVC002 00/00 A2981 RMK SLP105 =
2018-11-13 21:38 METAR CYSC 132138Z AUTO 27006KT 1 3/4SM BR OVC002 00/00 A2981 RMK SLP105 =
2018-11-13 21:18 METAR CYSC 132118Z AUTO 27006KT 2SM BR OVC002 00/00 A2980 RMK SLP104 =
2018-11-13 21:00 METAR CYSC 132100Z AUTO 26006KT 1 1/2SM BR OVC002 00/00 A2981 RMK SLP106 =
2018-11-13 20:51 METAR CYSC 132051Z AUTO 25004KT 1 3/4SM BR OVC002 00/00 A2980 RMK SLP104 =
2018-11-13 20:46 METAR CYSC 132046Z AUTO 25005KT 2 1/2SM BR OVC002 00/00 A2980 RMK SLP103 =
2018-11-13 20:44 METAR CYSC 132044Z AUTO 25005KT 2 1/2SM -SN OVC002 00/00 A2980 RMK SLP104 =
2018-11-13 20:30 METAR CYSC 132030Z AUTO 27006KT 3SM -SN OVC002 00/00 A2981 RMK SLP106 =
2018-11-13 20:25 METAR CYSC 132025Z AUTO 27005KT 2 1/4SM -SN OVC002 00/00 A2980 RMK VIS VRB 1
                 1/4-3 PRESFR SLP104 =
2018-11-13 20:00 METAR CYSC 132000Z AUTO 25003KT 1 1/2SM -SN OVC002 00/00 A2981 RMK SLP107 =
2018-11-13 19:55 METAR CYSC 131955Z AUTO 25003KT 1 1/2SM -SN OVC002 00/00 A2981 RMK PRESFR SLP108
                 =
2018-11-13 19:49 METAR CYSC 131949Z AUTO 25004KT 1 1/4SM -RASN OVC002 00/00 A2982 RMK SLP110 =
2018-11-13 19:45 METAR CYSC 131945Z AUTO 25004KT 1 1/2SM -RA BR OVC002 00/00 A2982 RMK SLP110 =
2018-11-13 19:41 METAR CYSC 131941Z AUTO 25004KT 1 3/4SM -RASN OVC002 00/00 A2983 RMK SLP112 =
2018-11-13 19:39 METAR CYSC 131939Z AUTO 26004KT 2SM -RASN BKN002 OVC005 00/00 A2983 RMK SLP113 =
2018-11-13 19:34 METAR CYSC 131934Z AUTO 26004KT 2SM -SN BKN005 OVC008 00/00 A2983 RMK SLP113 =
2018-11-13 19:29 METAR CYSC 131929Z AUTO 26004KT 1 1/2SM -SN BKN005 OVC008 00/00 A2983 RMK SLP114
                 =
2018-11-13 19:28 METAR CYSC 131928Z AUTO 26004KT 1 1/2SM -SN SCT003 OVC008 00/00 A2983 RMK SLP114
                 =
2018-11-13 19:00 METAR CYSC 131900Z AUTO 26003KT 1SM -SN VV005 00/00 A2984 RMK SLP115 =
2018-11-13 18:54 METAR CYSC 131854Z AUTO 26004KT 1SM -SN VV005 00/00 A2984 RMK SLP117 =
2018-11-13 18:49 METAR CYSC 131849Z AUTO 26004KT 3/8SM SN VV006 00/00 A2985 RMK SLP119 =
2018-11-13 18:42 METAR CYSC 131842Z AUTO 27002KT 1/4SM +SN FEW003 OVC007 00/00 A2984 RMK SLP117 =
2018-11-13 18:35 METAR CYSC 131835Z AUTO 29003KT 3/4SM -SN FEW003 OVC007 00/00 A2985 RMK SLP119 =
2018-11-13 18:29 METAR CYSC 131829Z AUTO 30002KT 1SM -SN VV007 00/00 A2985 RMK SLP121 =
2018-11-13 18:24 METAR CYSC 131824Z AUTO VRB02KT 1 1/2SM -RASN OVC006 00/00 A2985 RMK SLP121 =
2018-11-13 18:21 METAR CYSC 131821Z AUTO 00000KT 1 3/4SM -RASN OVC008 00/00 A2985 RMK SLP121 =
2018-11-13 18:16 METAR CYSC 131816Z AUTO 00000KT 2 1/2SM -RASN OVC008 00/00 A2985 RMK VIS VRB 1
                 1/4-3 PRESFR SLP122 =
2018-11-13 18:12 METAR CYSC 131812Z AUTO 34002KT 2SM -SN OVC008 00/00 A2985 RMK VIS VRB 1-3
                 PRESFR SLP122 =
2018-11-13 18:09 METAR CYSC 131809Z AUTO VRB02KT 1 1/2SM -SN FEW004 OVC008 00/00 A2986 RMK VIS
                 VRB 1-3 SLP124 =
2018-11-13 18:01 METAR CYSC 131801Z AUTO 00000KT 1SM -SN VV006 00/00 A2987 RMK PRESFR SLP127 =
2018-11-13 18:00 METAR CYSC 131800Z AUTO 00000KT 3/4SM -SN VV007 00/00 A2987 RMK PRESFR PCPN
                 0.5MM PAST HR SLP127 =
2018-11-13 17:31 METAR CYSC 131731Z AUTO 34003KT 3/4SM -SN BKN003 OVC016 00/00 A2989 RMK SLP135 =
2018-11-13 17:26 METAR CYSC 131726Z AUTO VRB02KT 1SM -SN SCT003 BKN007 OVC016 00/00 A2989 RMK VIS
                 VRB 3/4-2 1/4 SLP135 =
2018-11-13 17:00 METAR CYSC 131700Z AUTO 05002KT 1 1/4SM -SN FEW005 OVC012 00/00 A2991 RMK VIS
                 VRB 1-2 SLP140 =
2018-11-13 16:09 METAR CYSC 131609Z AUTO 07004KT 1SM -SN SCT003 OVC010 00/00 A2995 RMK PRESFR
                 SLP155 =
2018-11-13 16:00 METAR CYSC 131600Z AUTO 08004KT 1SM -SN SCT003 OVC008 00/00 A2996 RMK SLP159 =
2018-11-13 15:26 METAR CYSC 131526Z AUTO 10006KT 1 1/2SM -SN SCT003 OVC008 00/00 A2999 RMK VIS
                 VRB 1-3 ICG PAST HR SLP169 =
2018-11-13 15:08 METAR CYSC 131508Z AUTO 11005KT 1 1/2SM -SN OVC006 00/00 A3000 RMK VIS VRB 3/4-2
                 1/2 ICG PAST HR PRESFR SLP173 =
2018-11-13 15:00 METAR CYSC 131500Z AUTO 11005KT 1 3/4SM -SN OVC006 00/00 A3001 RMK VIS VRB 1
                 1/4-3 ICG INTMT PRESFR SLP176 =
2018-11-13 14:48 METAR CYSC 131448Z AUTO 11005KT 1 1/2SM -SN OVC006 00/00 A3003 RMK ICG SLP182 =
2018-11-13 14:43 METAR CYSC 131443Z AUTO 11005KT 1 1/4SM -SN OVC006 00/00 A3003 RMK ICG PAST HR
                 SLP183 =
2018-11-13 14:30 METAR CYSC 131430Z AUTO 11005KT 1SM -SN VV006 00/00 A3004 RMK VIS VRB 5/8-1 3/4
                 ICG INTMT SLP186 =
2018-11-13 14:26 METAR CYSC 131426Z AUTO 11005KT 1SM -SN SCT004 OVC008 00/00 A3004 RMK ICG PRESFR
                 SLP186 =
2018-11-13 14:24 METAR CYSC 131424Z AUTO 11005KT 1SM -SN OVC006 00/00 A3004 RMK ICG SLP187 =
2018-11-13 14:08 METAR CYSC 131408Z AUTO 12005KT 1 1/2SM -SN OVC008 00/00 A3006 RMK VIS VRB 1-3
                 ICG SLP193 =
2018-11-13 14:01 METAR CYSC 131401Z AUTO 12006KT 2SM -SN OVC008 00/00 A3007 RMK VIS VRB 1-3 ICG
                 SLP195 =
2018-11-13 14:00 METAR CYSC 131400Z AUTO 13006KT 1 1/2SM -SN OVC008 00/00 A3007 RMK VIS VRB 5/8-3
                 ICG SLP196 =
2018-11-13 13:54 METAR CYSC 131354Z AUTO 13007KT 1 1/2SM -SN OVC008 00/00 A3007 RMK VIS VRB 5/8-3
                 ICG SLP197 =
2018-11-13 13:21 METAR CYSC 131321Z AUTO 13006KT 1 1/4SM -SN OVC006 00/00 A3010 RMK VIS VRB 3/4-1
                 3/4 ICG SLP205 =
2018-11-13 13:00 METAR CYSC 131300Z AUTO 12005KT 1SM -SN VV006 00/00 A3010 RMK VIS VRB 3/4-1 3/4
                 SLP208 =
2018-11-13 12:50 METAR CYSC 131250Z AUTO 12005KT 1SM -SN VV006 M00/M00 A3011 RMK VIS VRB 5/8-1
                 1/2 SLP209 =
2018-11-13 12:13 METAR CYSC 131213Z AUTO 11004KT 3/4SM -SN VV006 M00/M00 A3012 RMK TS/LTNG TEMPO
                 UNAVBL SLP213 =
2018-11-13 12:00 METAR CYSC 131200Z AUTO 12004KT 1 1/4SM -SN OVC007 M00/M00 A3012 RMK VIS VRB 1-2
                 1/4 PCPN 1.5MM PAST HR TS/LTNG TEMPO UNAVBL SLP213 =
2018-11-13 11:54 METAR CYSC 131154Z AUTO 11005KT 1SM -SN VV007 M00/M00 A3012 RMK TS/LTNG TEMPO
                 UNAVBL SLP213 =
2018-11-13 11:48 METAR CYSC 131148Z AUTO 10005KT 3/4SM -SN VV007 M00/M00 A3012 RMK PRESFR SLP212
                 =
2018-11-13 11:47 METAR CYSC 131147Z AUTO 10004KT 3/4SM -SN VV008 M00/M00 A3012 RMK PRESFR SLP212
                 =
2018-11-13 11:46 METAR CYSC 131146Z AUTO 09005KT 3/4SM -SN VV007 M00/M00 A3012 RMK PRESFR SLP213
                 =
2018-11-13 11:37 METAR CYSC 131137Z AUTO 10005KT 1 1/4SM -SN VV007 M00/M00 A3013 RMK SLP216 =
2018-11-13 11:27 METAR CYSC 131127Z AUTO 11005KT 1SM -SN VV009 M00/M00 A3013 RMK SLP217 =
2018-11-13 11:12 METAR CYSC 131112Z AUTO 12004KT 3/4SM -SN SCT010 OVC014 M00/M01 A3014 RMK SLP220
                 =
2018-11-13 11:00 METAR CYSC 131100Z AUTO 12003KT 070V130 1 1/2SM -SN BKN014 M00/M01 A3014 RMK
                 SLP221 =
2018-11-13 10:51 METAR CYSC 131051Z AUTO 09002KT 1 3/4SM -SN SCT014 BKN024 M00/M01 A3014 RMK
                 SLP218 =
2018-11-13 10:50 METAR CYSC 131050Z AUTO 10002KT 1 3/4SM -SN SCT016 SCT024 M00/M01 A3014 RMK
                 SLP219 =
2018-11-13 10:47 METAR CYSC 131047Z AUTO 09002KT 2 1/2SM -SN FEW016 SCT024 M01/M01 A3014 RMK
                 SLP220 =
2018-11-13 10:41 METAR CYSC 131041Z AUTO 08002KT 5SM -SN FEW016 SCT024 M00/M01 A3014 RMK SLP220 =
2018-11-13 10:35 METAR CYSC 131035Z AUTO 06003KT 6SM -SN SCT014 SCT024 M01/M01 A3014 RMK SLP218 =
2018-11-13 10:29 METAR CYSC 131029Z AUTO 07003KT 6SM -SN SCT014 BKN024 M01/M01 A3014 RMK SLP220 =
2018-11-13 10:00 METAR CYSC 131000Z AUTO 11006KT 3SM -SN OVC012 M00/M01 A3014 RMK PRESFR SLP221 =
2018-11-13 09:56 METAR CYSC 130956Z AUTO 11006KT 3SM -SN OVC012 M00/M01 A3014 RMK PRESFR SLP221 =
2018-11-13 09:49 METAR CYSC 130949Z AUTO 11005KT 2SM -SN BKN010 OVC026 M00/M01 A3016 RMK VIS VRB
                 1 1/2-2 1/2 SLP227 =
2018-11-13 09:37 METAR CYSC 130937Z AUTO 12004KT 1 3/4SM -SN BKN014 OVC026 M00/M01 A3017 RMK VIS
                 VRB 1-3 SLP230 =
2018-11-13 09:35 METAR CYSC 130935Z AUTO 12005KT 2 1/4SM -SN BKN016 OVC026 M00/M01 A3017 RMK VIS
                 VRB 1 1/4-3 SLP231 =
2018-11-13 09:20 METAR CYSC 130920Z AUTO 12005KT 5SM -SN BKN016 OVC022 M00/M01 A3018 RMK SLP233 =
2018-11-13 09:13 METAR CYSC 130913Z AUTO 12006KT 6SM -SN BKN014 OVC022 M00/M01 A3018 RMK PRESFR
                 SLP232 =
2018-11-13 09:00 METAR CYSC 130900Z AUTO 13005KT 3SM -SN SCT014 OVC022 M00/M01 A3019 RMK SLP236 =
2018-11-13 08:57 METAR CYSC 130857Z AUTO 13005KT 3SM -SN SCT014 OVC022 M00/M01 A3019 RMK SLP237 =
2018-11-13 08:52 METAR CYSC 130852Z AUTO 13005KT 2SM -SN BKN012 OVC020 M00/M00 A3020 RMK VIS VRB
                 1 1/4-3 SLP239 =
2018-11-13 08:00 METAR CYSC 130800Z AUTO 10003KT 1 1/2SM -SN BKN012 OVC017 M00/M01 A3021 RMK
                 SLP242 =
2018-11-13 07:31 METAR CYSC 130731Z AUTO 12003KT 1 3/4SM -SN FEW013 OVC019 M00/M01 A3023 RMK VIS
                 VRB 1 1/2-3 SLP250 =
2018-11-13 07:19 METAR CYSC 130719Z AUTO 14004KT 2SM -SN BKN011 OVC019 M00/M01 A3023 RMK VIS VRB
                 1 1/2-2 1/2 SLP250 =
2018-11-13 07:00 METAR CYSC 130700Z AUTO 16004KT 1 1/4SM -SN OVC011 00/M01 A3024 RMK SLP253 =
2018-11-13 06:49 METAR CYSC 130649Z AUTO 18006KT 1 3/4SM -SN BKN013 00/M01 A3024 RMK SLP255 =
2018-11-13 06:43 METAR CYSC 130643Z AUTO 18007KT 2 1/2SM -SN BKN013 01/M02 A3025 RMK SLP255 =
2018-11-13 06:38 METAR CYSC 130638Z AUTO 18004KT 4SM -SN BKN015 01/M02 A3025 RMK SLP257 =
2018-11-13 06:37 METAR CYSC 130637Z AUTO 18004KT 5SM -SN SCT017 01/M02 A3025 RMK SLP257 =
2018-11-13 06:25 METAR CYSC 130625Z AUTO 20008KT 100V250 9SM -SN CLR 00/M03 A3026 RMK SLP261 =
2018-11-13 06:00 METAR CYSC 130600Z AUTO 11004KT 9SM CLR M01/M03 A3026 RMK SLP259 =
2018-11-13 05:00 METAR CYSC 130500Z AUTO 08003KT 9SM BKN065 BKN250 M01/M04 A3026 RMK SLP261 =
2018-11-13 04:00 METAR CYSC 130400Z AUTO 06003KT 9SM OVC065 M02/M04 A3028 RMK SLP267 =
2018-11-13 03:00 METAR CYSC 130300Z AUTO VRB02KT 9SM OVC065 M03/M04 A3029 RMK SLP273 =
2018-11-13 02:00 METAR CYSC 130200Z AUTO 06004KT 9SM FEW065 M03/M05 A3028 RMK SLP270 =

Support USWX by starting your Amazon purchase here.